Time;durP1;ratioP1;P1;durP2;ratioP2;P2;SDS_P1;SDS_P2;PMS_P1;PMS_P2;Temp;Humidity;BMP_temperature;BMP_pressure;BME280_temperature;BME280_humidity;BME280_pressure;Samples;Min_cycle;Max_cycle;Signal;HPM_P1;HPM_P2
2021/12/04 00:00:42;;;;;;;7.80;7.07;;;5.90;99.90;;;;;;5132059;28;20189;-85
2021/12/04 00:03:15;;;;;;;7.37;6.87;;;5.80;99.90;;;;;;5137768;28;20188;-85
2021/12/04 00:05:53;;;;;;;6.80;6.20;;;5.60;99.90;;;;;;5137842;28;20223;-85
2021/12/04 00:08:33;;;;;;;7.30;6.70;;;5.80;99.90;;;;;;5137282;28;20276;-85
2021/12/04 00:11:22;;;;;;;7.03;6.33;;;5.70;99.90;;;;;;5137059;28;20204;-85
2021/12/04 00:14:13;;;;;;;6.93;6.33;;;5.70;99.90;;;;;;5120842;28;20223;-85
2021/12/04 00:16:51;;;;;;;7.20;6.60;;;5.80;99.90;;;;;;5136902;28;20253;-85
2021/12/04 00:19:29;;;;;;;6.70;6.20;;;5.80;99.90;;;;;;5136017;28;20235;-85
2021/12/04 00:22:00;;;;;;;7.67;7.00;;;5.70;99.90;;;;;;5118974;28;20204;-84
2021/12/04 00:24:43;;;;;;;7.27;6.77;;;5.80;99.90;;;;;;5136525;28;20263;-85
2021/12/04 00:27:20;;;;;;;7.80;7.00;;;5.80;99.90;;;;;;5135891;28;20200;-85
2021/12/04 00:32:58;;;;;;;8.10;7.07;;;5.70;99.90;;;;;;5114608;28;20229;-85
2021/12/04 00:35:41;;;;;;;7.63;7.03;;;5.70;99.90;;;;;;5098233;28;20205;-85
2021/12/04 00:49:22;;;;;;;7.50;6.90;;;5.60;99.90;;;;;;5115095;28;20241;-85
2021/12/04 00:51:55;;;;;;;8.73;7.47;;;5.60;99.90;;;;;;5097534;28;20767;-85
2021/12/04 00:54:31;;;;;;;9.38;8.68;;;5.60;99.90;;;;;;5114509;28;20448;-85
2021/12/04 00:59:36;;;;;;;7.40;6.80;;;5.60;99.90;;;;;;5335087;22;20243;-81
2021/12/04 01:02:25;;;;;;;7.70;7.00;;;5.50;99.90;;;;;;5295440;22;20264;-84
2021/12/04 01:05:10;;;;;;;8.57;7.77;;;5.50;99.90;;;;;;5155255;27;20203;-85
2021/12/04 01:11:06;;;;;;;7.80;7.30;;;5.60;99.90;;;;;;5283238;22;20259;-85
2021/12/04 08:43:29;;;;;;;13.20;8.60;;;6.60;99.90;;;;;;5209539;22;20215;-82
2021/12/04 08:46:13;;;;;;;14.30;9.60;;;6.60;99.90;;;;;;5140170;27;20203;-83
2021/12/04 08:54:54;;;;;;;21.70;14.82;;;6.60;99.90;;;;;;5810592;22;20409;-84
2021/12/04 09:13:33;;;;;;;21.27;12.00;;;6.40;99.90;;;;;;5268680;22;20212;-83
2021/12/04 09:16:36;;;;;;;19.43;11.57;;;6.40;99.90;;;;;;5212373;22;20232;-83
2021/12/04 09:22:27;;;;;;;24.93;12.07;;;6.40;99.90;;;;;;5138318;28;20264;-84
2021/12/04 10:14:02;;;;;;;22.27;13.03;;;6.30;99.90;;;;;;5026835;22;20256;-82
2021/12/04 10:17:13;;;;;;;25.50;12.67;;;6.30;99.90;;;;;;5132412;28;20200;-83
2021/12/04 10:49:03;;;;;;;21.47;12.13;;;6.10;99.90;;;;;;5335146;22;20233;-83
2021/12/04 11:04:37;;;;;;;15.77;9.77;;;6.10;99.90;;;;;;5112185;28;20209;-82
2021/12/04 11:19:23;;;;;;;9.57;5.70;;;6.10;99.90;;;;;;5075059;28;20247;-83
2021/12/04 11:22:19;;;;;;;11.85;9.30;;;6.10;99.90;;;;;;5071584;28;20430;-81
2021/12/04 11:40:24;;;;;;;7.43;6.47;;;6.20;99.90;;;;;;5631679;22;20214;-83
2021/12/04 11:45:50;;;;;;;9.60;6.37;;;6.20;99.90;;;;;;5118132;28;20221;-83
2021/12/04 11:48:32;;;;;;;10.33;6.63;;;6.30;99.90;;;;;;5330923;22;20220;-83
2021/12/04 11:51:26;;;;;;;7.67;5.80;;;6.30;99.90;;;;;;5119531;28;20238;-83
2021/12/04 12:09:15;;;;;;;7.53;6.37;;;6.50;99.90;;;;;;5250656;22;20244;-83
2021/12/04 12:14:58;;;;;;;10.70;6.70;;;6.40;99.90;;;;;;5118968;28;20205;-83
2021/12/04 12:20:39;;;;;;;11.10;6.90;;;6.50;99.90;;;;;;3291174;25;20332;-83
2021/12/04 12:32:23;;;;;;;6.90;6.23;;;6.50;99.90;;;;;;5091333;28;20197;-83
2021/12/04 12:37:50;;;;;;;35.57;25.20;;;6.50;99.90;;;;;;5116549;28;20680;-83
2021/12/04 12:40:31;;;;;;;11.20;6.73;;;6.50;99.90;;;;;;5117048;28;20262;-83
2021/12/04 12:43:17;;;;;;;7.53;6.10;;;6.60;99.90;;;;;;5100505;28;20298;-84
2021/12/04 12:46:18;;;;;;;7.27;6.63;;;6.60;99.90;;;;;;5114434;28;20212;-83
2021/12/04 12:49:04;;;;;;;7.47;6.60;;;6.60;99.90;;;;;;5117481;28;20205;-83
2021/12/04 12:51:37;;;;;;;12.70;7.03;;;6.70;99.90;;;;;;5117167;28;20190;-84
2021/12/04 12:54:11;;;;;;;14.87;10.43;;;6.80;99.90;;;;;;5357863;22;20201;-84
2021/12/04 12:59:55;;;;;;;8.83;5.87;;;6.70;99.90;;;;;;5115975;28;20256;-83
2021/12/04 13:11:42;;;;;;;10.50;5.30;;;6.80;99.90;;;;;;5116321;28;20231;-82
2021/12/04 13:14:25;;;;;;;7.43;5.30;;;6.70;99.90;;;;;;5099325;28;20213;-84
2021/12/04 13:20:07;;;;;;;6.57;5.90;;;6.70;99.90;;;;;;5116597;28;20255;-83
2021/12/04 13:25:28;;;;;;;6.90;4.97;;;6.70;99.90;;;;;;5116077;28;20197;-82
2021/12/04 13:30:36;;;;;;;12.53;4.60;;;6.90;99.90;;;;;;5116129;28;20201;-83
2021/12/04 13:33:11;;;;;;;7.57;4.30;;;6.90;99.90;;;;;;5098478;28;20230;-83
2021/12/04 13:35:53;;;;;;;5.50;4.30;;;6.90;99.90;;;;;;5116377;28;20211;-83
2021/12/04 13:38:32;;;;;;;6.47;4.30;;;7.00;99.90;;;;;;5116570;28;20209;-83
2021/12/04 13:41:10;;;;;;;7.30;4.17;;;7.10;99.90;;;;;;5116973;28;20240;-82
2021/12/04 13:44:42;;;;;;;7.20;3.80;;;7.20;99.90;;;;;;5118347;28;20177;-84
2021/12/04 13:47:29;;;;;;;9.83;4.57;;;7.20;99.90;;;;;;5117149;28;20185;-82
2021/12/04 14:04:16;;;;;;;9.17;2.53;;;6.90;99.90;;;;;;5119079;28;20263;-82
2021/12/04 14:13:11;;;;;;;13.17;3.30;;;6.90;99.90;;;;;;5236969;22;20224;-82
2021/12/04 14:15:52;;;;;;;8.60;2.90;;;6.90;99.90;;;;;;5111746;28;20239;-82
2021/12/04 14:18:30;;;;;;;10.37;3.00;;;6.90;99.90;;;;;;5095499;28;20260;-82
2021/12/04 14:21:29;;;;;;;10.97;3.70;;;6.90;99.90;;;;;;5095498;28;20231;-83
2021/12/04 14:24:08;;;;;;;9.63;2.30;;;7.00;99.90;;;;;;5095844;28;20197;-83
2021/12/04 14:26:41;;;;;;;3.57;2.60;;;7.00;99.90;;;;;;5113741;28;20216;-83
2021/12/04 14:29:33;;;;;;;7.70;3.23;;;7.00;99.90;;;;;;5131037;22;20262;-82
2021/12/04 14:43:06;;;;;;;10.93;2.77;;;7.00;99.90;;;;;;5050409;28;20234;-82
2021/12/04 14:57:17;;;;;;;8.60;2.87;;;6.90;99.90;;;;;;4447744;26;20224;-83
2021/12/04 15:00:05;;;;;;;14.17;3.37;;;6.90;99.90;;;;;;5125856;28;20224;-83
2021/12/04 15:02:35;;;;;;;11.30;3.00;;;6.90;99.90;;;;;;5127594;27;20206;-83
2021/12/04 15:05:11;;;;;;;13.10;3.50;;;6.80;99.90;;;;;;5112926;28;20431;-82
2021/12/04 15:08:36;;;;;;;17.50;3.40;;;6.90;99.90;;;;;;5112767;28;20480;-83
2021/12/04 15:28:31;;;;;;;9.33;2.60;;;6.80;99.90;;;;;;5098760;28;20222;-83
2021/12/04 15:45:44;;;;;;;10.10;2.83;;;6.60;99.90;;;;;;5099317;28;20265;-83
2021/12/04 15:55:18;;;;;;;8.70;2.53;;;6.60;99.90;;;;;;5000439;28;20182;-83
2021/12/04 16:04:36;;;;;;;12.00;2.67;;;6.40;99.90;;;;;;5135892;27;20510;-82
2021/12/04 16:07:13;;;;;;;13.33;3.50;;;6.40;99.90;;;;;;5133767;28;20200;-83
2021/12/04 16:16:41;;;;;;;10.73;2.70;;;6.50;99.90;;;;;;5135981;27;20195;-82
2021/12/04 16:19:18;;;;;;;9.30;4.00;;;6.50;99.90;;;;;;5134475;28;20425;-81
2021/12/04 16:22:09;;;;;;;10.53;3.07;;;6.60;99.90;;;;;;5119242;28;20224;-82
2021/12/04 16:34:04;;;;;;;8.13;2.90;;;6.50;99.90;;;;;;5137051;28;20184;-81
2021/12/04 16:37:02;;;;;;;5.50;3.10;;;6.40;99.90;;;;;;5135616;28;20184;-82
2021/12/04 16:40:15;;;;;;;8.43;2.83;;;6.40;99.90;;;;;;5134907;28;20220;-83
2021/12/04 16:49:58;;;;;;;7.97;3.03;;;6.50;99.90;;;;;;5134960;28;20201;-82
2021/12/04 16:58:11;;;;;;;13.33;3.30;;;6.60;99.90;;;;;;5130532;28;20196;-83
2021/12/04 17:00:48;;;;;;;7.97;2.70;;;6.50;99.90;;;;;;5132770;28;20252;-83
2021/12/04 17:03:32;;;;;;;12.10;3.00;;;6.50;99.90;;;;;;5134174;28;20243;-82
2021/12/04 17:06:04;;;;;;;9.63;3.03;;;6.50;99.90;;;;;;5133849;28;20202;-82
2021/12/04 17:08:36;;;;;;;8.97;2.73;;;6.50;99.90;;;;;;5133801;28;20192;-83
2021/12/04 17:14:19;;;;;;;11.10;3.03;;;6.50;99.90;;;;;;5126186;28;20231;-82
2021/12/04 17:16:53;;;;;;;11.83;2.60;;;6.40;99.90;;;;;;5118352;28;20200;-85
2021/12/04 17:19:24;;;;;;;7.97;2.00;;;6.50;99.90;;;;;;5117819;28;20216;-83
2021/12/04 17:24:44;;;;;;;9.47;2.10;;;6.30;99.90;;;;;;5115766;28;20193;-83
2021/12/04 17:27:18;;;;;;;10.83;2.80;;;6.10;99.90;;;;;;5116196;28;20262;-78
2021/12/04 17:29:51;;;;;;;12.67;2.73;;;6.10;99.90;;;;;;5102138;28;20235;-79
2021/12/04 17:32:19;;;;;;;12.02;3.60;;;6.00;99.90;;;;;;5102484;28;20492;-79
2021/12/04 17:34:50;;;;;;;9.83;2.70;;;6.00;99.90;;;;;;5105031;28;20219;-80
2021/12/04 17:37:23;;;;;;;15.00;4.87;;;6.00;99.90;;;;;;5105694;28;20225;-78
2021/12/04 17:39:53;;;;;;;8.30;3.00;;;5.90;99.90;;;;;;5105584;28;20273;-80
2021/12/04 17:42:23;;;;;;;14.67;3.57;;;5.90;99.90;;;;;;5104383;28;20297;-80
2021/12/04 17:44:51;;;;;;;9.37;3.00;;;5.90;99.90;;;;;;5103792;28;20250;-80
2021/12/04 17:47:21;;;;;;;12.63;3.03;;;5.90;99.90;;;;;;5103440;28;20252;-80
2021/12/04 17:49:47;;;;;;;10.93;3.23;;;5.80;99.90;;;;;;5105091;28;20266;-80
2021/12/04 17:52:15;;;;;;;15.47;3.50;;;5.90;99.90;;;;;;5105277;28;20201;-79
2021/12/04 17:54:43;;;;;;;9.10;3.13;;;5.70;99.90;;;;;;5105528;28;20209;-80
2021/12/04 17:57:16;;;;;;;9.33;2.90;;;5.70;99.90;;;;;;5109640;28;20191;-80
2021/12/04 17:59:45;;;;;;;8.27;2.53;;;5.80;99.90;;;;;;5118145;28;20212;-80
2021/12/04 18:02:19;;;;;;;12.43;3.50;;;5.70;99.90;;;;;;5111870;28;20233;-79
2021/12/04 18:04:53;;;;;;;10.20;3.20;;;5.70;99.90;;;;;;5112075;28;20205;-80
2021/12/04 18:07:26;;;;;;;7.10;2.63;;;5.60;99.90;;;;;;5113600;28;20648;-81
2021/12/04 18:09:58;;;;;;;15.63;5.00;;;5.60;99.90;;;;;;5111840;28;20249;-81
2021/12/04 18:12:39;;;;;;;15.63;3.63;;;5.50;99.90;;;;;;5110470;28;20213;-81
2021/12/04 18:15:12;;;;;;;13.03;3.33;;;5.70;99.90;;;;;;5106854;28;20201;-80
2021/12/04 18:17:44;;;;;;;14.17;3.63;;;5.50;99.90;;;;;;5108004;28;20292;-80
2021/12/04 18:20:12;;;;;;;9.03;2.83;;;5.50;99.90;;;;;;5107664;28;20213;-80
2021/12/04 18:22:44;;;;;;;12.67;3.63;;;5.50;99.90;;;;;;5105751;28;20311;-80
2021/12/04 18:25:19;;;;;;;11.97;3.40;;;5.50;99.90;;;;;;5106237;28;20254;-79
2021/12/04 18:27:49;;;;;;;12.90;3.93;;;5.50;99.90;;;;;;5107302;28;20212;-80
2021/12/04 18:30:26;;;;;;;11.53;3.30;;;5.50;99.90;;;;;;5106659;28;20205;-80
2021/12/04 18:32:57;;;;;;;11.47;3.27;;;5.50;99.90;;;;;;5105635;28;20204;-80
2021/12/04 18:35:28;;;;;;;12.93;3.90;;;5.60;99.90;;;;;;5107694;28;20186;-80
2021/12/04 18:37:55;;;;;;;13.83;5.00;;;5.60;99.90;;;;;;5105894;28;20269;-81
2021/12/04 18:40:35;;;;;;;19.73;4.53;;;5.60;99.90;;;;;;5108020;28;20265;-80
2021/12/04 18:43:02;;;;;;;16.77;6.33;;;5.60;99.90;;;;;;5106711;28;20274;-80
2021/12/04 18:45:34;;;;;;;17.05;6.97;;;5.60;99.90;;;;;;5105968;28;20937;-81
2021/12/04 18:48:04;;;;;;;13.80;4.10;;;5.70;99.90;;;;;;5107028;28;20205;-80
2021/12/04 18:50:37;;;;;;;11.33;4.37;;;5.70;99.90;;;;;;5106242;28;20201;-80
2021/12/04 18:53:05;;;;;;;14.53;3.97;;;5.70;99.90;;;;;;5106505;28;20205;-79
2021/12/04 18:55:42;;;;;;;16.07;4.33;;;5.70;99.90;;;;;;5107357;28;20577;-80
2021/12/04 18:58:13;;;;;;;11.17;4.13;;;5.70;99.90;;;;;;5106773;28;20224;-80
2021/12/04 19:00:42;;;;;;;9.67;3.40;;;5.70;99.90;;;;;;5105677;28;20201;-80
2021/12/04 19:03:12;;;;;;;9.37;3.17;;;5.80;99.90;;;;;;5105184;28;20232;-81
2021/12/04 19:05:42;;;;;;;13.37;2.97;;;5.70;99.90;;;;;;5105585;28;20205;-80
2021/12/04 19:08:12;;;;;;;15.73;3.77;;;5.70;99.90;;;;;;5105181;28;20197;-80
2021/12/04 19:10:41;;;;;;;11.73;3.00;;;5.80;99.90;;;;;;5105093;28;20812;-80
2021/12/04 19:13:12;;;;;;;9.13;3.23;;;5.70;99.90;;;;;;5104497;28;20201;-81
2021/12/04 19:15:41;;;;;;;9.93;2.70;;;5.60;99.90;;;;;;5105344;28;20208;-81
2021/12/04 19:18:15;;;;;;;10.33;2.77;;;5.50;99.90;;;;;;5102639;28;20254;-80
2021/12/04 19:20:44;;;;;;;8.80;3.33;;;5.50;99.90;;;;;;5103530;28;20201;-80
2021/12/04 19:23:13;;;;;;;10.63;3.83;;;5.60;99.90;;;;;;5103051;28;20239;-80
2021/12/04 19:25:45;;;;;;;13.07;4.03;;;5.60;99.90;;;;;;5103522;28;20304;-80
2021/12/04 19:28:13;;;;;;;10.03;3.63;;;5.50;99.90;;;;;;5103061;28;20656;-80
2021/12/04 19:30:45;;;;;;;15.83;4.07;;;5.60;99.90;;;;;;5101648;28;20209;-80
2021/12/04 19:33:27;;;;;;;9.87;3.33;;;5.60;99.90;;;;;;5101062;28;20209;-80
2021/12/04 19:53:00;;;;;;;13.60;4.37;;;5.30;99.90;;;;;;5078687;28;20198;-80
2021/12/04 19:55:29;;;;;;;7.00;3.40;;;5.20;99.90;;;;;;5097165;28;20632;-80
2021/12/04 19:57:58;;;;;;;12.47;4.07;;;5.30;99.90;;;;;;5102439;28;20201;-80
2021/12/04 20:00:32;;;;;;;12.63;4.70;;;5.30;99.90;;;;;;5100112;28;20426;-80
2021/12/04 20:03:13;;;;;;;8.27;3.80;;;5.40;99.90;;;;;;5102107;28;20258;-80
2021/12/04 20:05:53;;;;;;;15.00;3.77;;;5.40;99.90;;;;;;5101735;28;20703;-80
2021/12/04 20:08:43;;;;;;;13.80;3.70;;;5.40;99.90;;;;;;5100905;28;20211;-80
2021/12/04 20:13:58;;;;;;;8.60;3.87;;;5.30;99.90;;;;;;5101939;28;20216;-80
2021/12/04 20:16:36;;;;;;;10.70;3.43;;;5.20;99.90;;;;;;5101845;28;20209;-79
2021/12/04 20:19:10;;;;;;;7.90;3.70;;;5.20;99.90;;;;;;5101475;28;20193;-80
2021/12/04 20:22:02;;;;;;;13.23;3.97;;;5.10;99.90;;;;;;5101959;28;20193;-80
2021/12/04 20:24:39;;;;;;;9.67;4.10;;;5.10;99.90;;;;;;5102447;28;20699;-80
2021/12/04 20:27:18;;;;;;;15.10;4.83;;;4.90;99.90;;;;;;5104040;28;20208;-80
2021/12/04 20:30:12;;;;;;;7.67;3.77;;;5.00;99.90;;;;;;5103519;28;20189;-80
2021/12/04 20:33:08;;;;;;;17.47;3.93;;;4.90;99.90;;;;;;5103606;28;20205;-80
2021/12/04 20:52:57;;;;;;;15.50;5.67;;;4.40;99.90;;;;;;5107684;28;20428;-80
2021/12/04 21:07:02;;;;;;;18.30;6.27;;;4.40;99.90;;;;;;5108327;28;20413;-80
2021/12/04 21:09:51;;;;;;;16.07;5.83;;;4.30;99.90;;;;;;5104343;28;20516;-80
2021/12/04 21:27:20;;;;;;;17.77;6.63;;;4.30;99.90;;;;;;5103895;28;20410;-80
2021/12/04 21:51:39;;;;;;;20.30;5.23;;;4.10;99.90;;;;;;5105157;28;20200;-80
2021/12/04 21:54:08;;;;;;;16.43;5.10;;;4.20;99.90;;;;;;5103383;28;20461;-80
2021/12/04 21:56:52;;;;;;;15.53;5.10;;;4.10;99.90;;;;;;5104807;28;20525;-80
2021/12/04 22:10:38;;;;;;;17.33;5.10;;;4.10;99.90;;;;;;5090657;28;20463;-80
2021/12/04 22:13:13;;;;;;;11.07;4.50;;;4.10;99.90;;;;;;5104009;28;20517;-80
2021/12/04 22:15:59;;;;;;;14.03;4.33;;;4.00;99.90;;;;;;5103419;28;20523;-81
2021/12/04 22:19:04;;;;;;;16.67;4.63;;;3.90;99.90;;;;;;5105163;28;20509;-80
2021/12/04 22:55:45;;;;;;;20.57;3.30;;;3.90;99.90;;;;;;5082520;28;20426;-80
2021/12/04 22:58:20;;;;;;;8.80;2.93;;;3.90;99.90;;;;;;5102787;28;20446;-80
2021/12/04 23:01:08;;;;;;;10.30;3.70;;;3.90;99.90;;;;;;5104945;28;20937;-81
2021/12/04 23:03:45;;;;;;;13.87;3.07;;;3.80;99.90;;;;;;5101436;28;20507;-80
2021/12/04 23:11:57;;;;;;;12.83;3.07;;;3.80;99.90;;;;;;5101194;28;20425;-80
2021/12/04 23:14:27;;;;;;;14.97;2.80;;;3.90;99.90;;;;;;5102144;28;20449;-80
2021/12/04 23:17:05;;;;;;;14.50;3.80;;;3.90;99.90;;;;;;5101812;28;20438;-80
2021/12/04 23:36:20;;;;;;;11.57;2.53;;;3.90;99.90;;;;;;5096614;28;20444;-80
2021/12/04 23:42:05;;;;;;;17.13;3.10;;;4.00;99.90;;;;;;5091893;28;20434;-80
2021/12/04 23:45:09;;;;;;;14.43;3.20;;;3.90;99.90;;;;;;5102562;28;20487;-80
2021/12/04 23:48:04;;;;;;;10.30;2.83;;;4.00;99.90;;;;;;5102093;28;20449;-81
